sensor_id;sensor_type;location;lat;lon;timestamp;P1;durP1;ratioP1;P2;durP2;ratioP2
30998;SDS011;20549;50.042;8.968;2024-03-08T00:00:26;11.80;;;10.13;;
30998;SDS011;20549;50.042;8.968;2024-03-08T00:02:53;10.83;;;9.37;;
30998;SDS011;20549;50.042;8.968;2024-03-08T00:05:19;12.27;;;10.00;;
30998;SDS011;20549;50.042;8.968;2024-03-08T00:07:46;12.57;;;10.37;;
30998;SDS011;20549;50.042;8.968;2024-03-08T00:10:13;11.10;;;9.33;;
30998;SDS011;20549;50.042;8.968;2024-03-08T00:12:40;11.40;;;9.50;;
30998;SDS011;20549;50.042;8.968;2024-03-08T00:15:06;12.87;;;10.93;;
30998;SDS011;20549;50.042;8.968;2024-03-08T00:17:32;13.83;;;10.90;;
30998;SDS011;20549;50.042;8.968;2024-03-08T00:19:59;12.63;;;10.00;;
30998;SDS011;20549;50.042;8.968;2024-03-08T00:22:26;12.27;;;9.67;;
30998;SDS011;20549;50.042;8.968;2024-03-08T00:24:52;12.70;;;10.13;;
30998;SDS011;20549;50.042;8.968;2024-03-08T00:27:19;11.97;;;9.73;;
30998;SDS011;20549;50.042;8.968;2024-03-08T00:29:45;12.63;;;11.03;;
30998;SDS011;20549;50.042;8.968;2024-03-08T00:32:12;12.23;;;10.23;;
30998;SDS011;20549;50.042;8.968;2024-03-08T00:34:38;15.00;;;11.33;;
30998;SDS011;20549;50.042;8.968;2024-03-08T00:37:05;13.20;;;10.97;;
30998;SDS011;20549;50.042;8.968;2024-03-08T00:39:32;11.20;;;9.97;;
30998;SDS011;20549;50.042;8.968;2024-03-08T00:41:58;13.37;;;10.70;;
30998;SDS011;20549;50.042;8.968;2024-03-08T00:44:25;14.60;;;11.67;;
30998;SDS011;20549;50.042;8.968;2024-03-08T00:46:51;11.77;;;9.43;;
30998;SDS011;20549;50.042;8.968;2024-03-08T00:49:18;11.47;;;10.10;;
30998;SDS011;20549;50.042;8.968;2024-03-08T00:51:45;12.23;;;9.57;;
30998;SDS011;20549;50.042;8.968;2024-03-08T00:54:11;12.57;;;10.00;;
30998;SDS011;20549;50.042;8.968;2024-03-08T00:56:38;13.03;;;10.57;;
30998;SDS011;20549;50.042;8.968;2024-03-08T00:59:04;12.00;;;10.00;;
30998;SDS011;20549;50.042;8.968;2024-03-08T01:01:31;11.60;;;9.80;;
30998;SDS011;20549;50.042;8.968;2024-03-08T01:03:58;11.90;;;9.23;;
30998;SDS011;20549;50.042;8.968;2024-03-08T01:06:24;12.03;;;10.57;;
30998;SDS011;20549;50.042;8.968;2024-03-08T01:08:51;10.90;;;9.40;;
30998;SDS011;20549;50.042;8.968;2024-03-08T01:11:17;12.40;;;10.27;;
30998;SDS011;20549;50.042;8.968;2024-03-08T01:13:44;11.60;;;9.87;;
30998;SDS011;20549;50.042;8.968;2024-03-08T01:16:10;12.27;;;10.07;;
30998;SDS011;20549;50.042;8.968;2024-03-08T01:18:37;12.37;;;10.27;;
30998;SDS011;20549;50.042;8.968;2024-03-08T01:21:04;13.27;;;10.33;;
30998;SDS011;20549;50.042;8.968;2024-03-08T01:23:30;11.57;;;10.03;;
30998;SDS011;20549;50.042;8.968;2024-03-08T01:28:27;11.93;;;10.70;;
30998;SDS011;20549;50.042;8.968;2024-03-08T01:30:53;11.47;;;10.17;;
30998;SDS011;20549;50.042;8.968;2024-03-08T01:33:23;14.10;;;10.97;;
30998;SDS011;20549;50.042;8.968;2024-03-08T01:35:49;13.60;;;11.00;;
30998;SDS011;20549;50.042;8.968;2024-03-08T01:38:16;11.10;;;9.30;;
30998;SDS011;20549;50.042;8.968;2024-03-08T01:40:43;11.83;;;10.07;;
30998;SDS011;20549;50.042;8.968;2024-03-08T01:43:43;14.37;;;10.53;;
30998;SDS011;20549;50.042;8.968;2024-03-08T01:45:48;14.80;;;10.80;;
30998;SDS011;20549;50.042;8.968;2024-03-08T01:48:14;11.47;;;10.27;;
30998;SDS011;20549;50.042;8.968;2024-03-08T01:50:41;14.97;;;11.03;;
30998;SDS011;20549;50.042;8.968;2024-03-08T01:53:07;11.33;;;10.00;;
30998;SDS011;20549;50.042;8.968;2024-03-08T01:55:34;14.40;;;11.17;;
30998;SDS011;20549;50.042;8.968;2024-03-08T01:58:00;15.00;;;11.07;;
30998;SDS011;20549;50.042;8.968;2024-03-08T02:00:27;12.47;;;10.37;;
30998;SDS011;20549;50.042;8.968;2024-03-08T02:02:54;12.97;;;10.87;;
30998;SDS011;20549;50.042;8.968;2024-03-08T02:05:21;13.67;;;10.27;;
30998;SDS011;20549;50.042;8.968;2024-03-08T02:07:47;11.87;;;10.47;;
30998;SDS011;20549;50.042;8.968;2024-03-08T02:10:13;12.13;;;10.47;;
30998;SDS011;20549;50.042;8.968;2024-03-08T02:12:40;13.23;;;10.63;;
30998;SDS011;20549;50.042;8.968;2024-03-08T02:15:07;16.23;;;12.03;;
30998;SDS011;20549;50.042;8.968;2024-03-08T02:17:33;14.40;;;10.73;;
30998;SDS011;20549;50.042;8.968;2024-03-08T02:20:00;15.97;;;11.03;;
30998;SDS011;20549;50.042;8.968;2024-03-08T02:22:27;13.03;;;10.37;;
30998;SDS011;20549;50.042;8.968;2024-03-08T02:24:53;15.73;;;11.53;;
30998;SDS011;20549;50.042;8.968;2024-03-08T02:27:23;13.83;;;10.83;;
30998;SDS011;20549;50.042;8.968;2024-03-08T02:29:49;13.87;;;11.00;;
30998;SDS011;20549;50.042;8.968;2024-03-08T02:32:15;17.03;;;11.60;;
30998;SDS011;20549;50.042;8.968;2024-03-08T02:34:42;11.60;;;10.27;;
30998;SDS011;20549;50.042;8.968;2024-03-08T02:37:09;13.87;;;11.03;;
30998;SDS011;20549;50.042;8.968;2024-03-08T02:39:35;16.07;;;11.27;;
30998;SDS011;20549;50.042;8.968;2024-03-08T02:42:02;14.43;;;11.27;;
30998;SDS011;20549;50.042;8.968;2024-03-08T02:44:28;13.70;;;10.73;;
30998;SDS011;20549;50.042;8.968;2024-03-08T02:46:55;13.87;;;11.20;;
30998;SDS011;20549;50.042;8.968;2024-03-08T02:49:22;17.03;;;11.03;;
30998;SDS011;20549;50.042;8.968;2024-03-08T02:51:48;12.40;;;10.43;;
30998;SDS011;20549;50.042;8.968;2024-03-08T02:54:15;16.40;;;12.23;;
30998;SDS011;20549;50.042;8.968;2024-03-08T02:56:41;18.30;;;10.93;;
30998;SDS011;20549;50.042;8.968;2024-03-08T02:59:08;13.63;;;10.60;;
30998;SDS011;20549;50.042;8.968;2024-03-08T03:01:34;12.90;;;10.83;;
30998;SDS011;20549;50.042;8.968;2024-03-08T03:04:01;14.37;;;11.50;;
30998;SDS011;20549;50.042;8.968;2024-03-08T03:06:28;15.37;;;11.33;;
30998;SDS011;20549;50.042;8.968;2024-03-08T03:08:54;14.20;;;10.77;;
30998;SDS011;20549;50.042;8.968;2024-03-08T03:11:21;13.37;;;11.57;;
30998;SDS011;20549;50.042;8.968;2024-03-08T03:13:47;12.80;;;11.40;;
30998;SDS011;20549;50.042;8.968;2024-03-08T03:16:20;14.87;;;10.57;;
30998;SDS011;20549;50.042;8.968;2024-03-08T03:18:46;13.70;;;10.03;;
30998;SDS011;20549;50.042;8.968;2024-03-08T03:21:13;12.47;;;10.20;;
30998;SDS011;20549;50.042;8.968;2024-03-08T03:23:39;13.80;;;10.33;;
30998;SDS011;20549;50.042;8.968;2024-03-08T03:26:06;13.80;;;10.80;;
30998;SDS011;20549;50.042;8.968;2024-03-08T03:28:33;14.30;;;11.20;;
30998;SDS011;20549;50.042;8.968;2024-03-08T03:30:59;13.07;;;10.47;;
30998;SDS011;20549;50.042;8.968;2024-03-08T03:33:26;15.37;;;11.57;;
30998;SDS011;20549;50.042;8.968;2024-03-08T03:35:52;16.73;;;11.90;;
30998;SDS011;20549;50.042;8.968;2024-03-08T03:38:19;14.40;;;11.00;;
30998;SDS011;20549;50.042;8.968;2024-03-08T03:40:46;15.63;;;11.80;;
30998;SDS011;20549;50.042;8.968;2024-03-08T03:43:12;15.30;;;11.77;;
30998;SDS011;20549;50.042;8.968;2024-03-08T03:45:39;15.37;;;11.30;;
30998;SDS011;20549;50.042;8.968;2024-03-08T03:48:06;15.43;;;11.37;;
30998;SDS011;20549;50.042;8.968;2024-03-08T03:50:35;16.03;;;12.37;;
30998;SDS011;20549;50.042;8.968;2024-03-08T03:53:02;15.00;;;11.80;;
30998;SDS011;20549;50.042;8.968;2024-03-08T03:55:28;16.17;;;11.90;;
30998;SDS011;20549;50.042;8.968;2024-03-08T03:57:54;16.23;;;12.10;;
30998;SDS011;20549;50.042;8.968;2024-03-08T04:00:21;16.43;;;12.57;;
30998;SDS011;20549;50.042;8.968;2024-03-08T04:02:48;16.97;;;12.80;;
30998;SDS011;20549;50.042;8.968;2024-03-08T04:05:14;17.13;;;12.43;;
30998;SDS011;20549;50.042;8.968;2024-03-08T04:07:41;16.00;;;12.60;;
30998;SDS011;20549;50.042;8.968;2024-03-08T04:10:08;15.53;;;11.83;;
30998;SDS011;20549;50.042;8.968;2024-03-08T04:12:34;15.63;;;12.90;;
30998;SDS011;20549;50.042;8.968;2024-03-08T04:15:01;14.30;;;12.03;;
30998;SDS011;20549;50.042;8.968;2024-03-08T04:17:27;15.73;;;12.00;;
30998;SDS011;20549;50.042;8.968;2024-03-08T04:19:54;16.47;;;12.03;;
30998;SDS011;20549;50.042;8.968;2024-03-08T04:22:20;15.20;;;12.10;;
30998;SDS011;20549;50.042;8.968;2024-03-08T04:24:47;16.17;;;13.30;;
30998;SDS011;20549;50.042;8.968;2024-03-08T04:27:14;16.57;;;13.03;;
30998;SDS011;20549;50.042;8.968;2024-03-08T04:29:40;16.67;;;13.20;;
30998;SDS011;20549;50.042;8.968;2024-03-08T04:32:07;15.33;;;12.43;;
30998;SDS011;20549;50.042;8.968;2024-03-08T04:34:33;15.87;;;12.27;;
30998;SDS011;20549;50.042;8.968;2024-03-08T04:37:00;15.67;;;11.10;;
30998;SDS011;20549;50.042;8.968;2024-03-08T04:39:29;15.47;;;11.47;;
30998;SDS011;20549;50.042;8.968;2024-03-08T04:41:56;15.87;;;12.60;;
30998;SDS011;20549;50.042;8.968;2024-03-08T04:44:25;14.23;;;12.33;;
30998;SDS011;20549;50.042;8.968;2024-03-08T04:46:52;16.70;;;12.63;;
30998;SDS011;20549;50.042;8.968;2024-03-08T04:49:18;17.17;;;12.87;;
30998;SDS011;20549;50.042;8.968;2024-03-08T04:51:45;15.83;;;12.23;;
30998;SDS011;20549;50.042;8.968;2024-03-08T04:54:11;13.80;;;12.27;;
30998;SDS011;20549;50.042;8.968;2024-03-08T04:56:38;18.00;;;13.17;;
30998;SDS011;20549;50.042;8.968;2024-03-08T04:59:04;17.07;;;12.70;;
30998;SDS011;20549;50.042;8.968;2024-03-08T05:01:31;16.57;;;13.43;;
30998;SDS011;20549;50.042;8.968;2024-03-08T05:03:59;17.83;;;14.03;;
30998;SDS011;20549;50.042;8.968;2024-03-08T05:06:26;18.10;;;13.07;;
30998;SDS011;20549;50.042;8.968;2024-03-08T05:08:52;15.47;;;12.53;;
30998;SDS011;20549;50.042;8.968;2024-03-08T05:11:19;17.07;;;13.40;;
30998;SDS011;20549;50.042;8.968;2024-03-08T05:13:45;18.73;;;13.37;;
30998;SDS011;20549;50.042;8.968;2024-03-08T05:16:12;16.07;;;13.07;;
30998;SDS011;20549;50.042;8.968;2024-03-08T05:18:39;14.93;;;12.60;;
30998;SDS011;20549;50.042;8.968;2024-03-08T05:21:05;16.77;;;13.40;;
30998;SDS011;20549;50.042;8.968;2024-03-08T05:23:32;17.17;;;12.77;;
30998;SDS011;20549;50.042;8.968;2024-03-08T05:25:58;16.33;;;13.07;;
30998;SDS011;20549;50.042;8.968;2024-03-08T05:28:25;17.57;;;13.47;;
30998;SDS011;20549;50.042;8.968;2024-03-08T05:30:51;18.10;;;12.93;;
30998;SDS011;20549;50.042;8.968;2024-03-08T05:33:18;17.87;;;13.40;;
30998;SDS011;20549;50.042;8.968;2024-03-08T05:35:45;16.50;;;13.03;;
30998;SDS011;20549;50.042;8.968;2024-03-08T05:38:11;17.30;;;13.30;;
30998;SDS011;20549;50.042;8.968;2024-03-08T05:40:38;17.17;;;13.43;;
30998;SDS011;20549;50.042;8.968;2024-03-08T05:43:04;15.50;;;12.40;;
30998;SDS011;20549;50.042;8.968;2024-03-08T05:45:31;16.93;;;13.20;;
30998;SDS011;20549;50.042;8.968;2024-03-08T05:47:58;17.47;;;13.70;;
30998;SDS011;20549;50.042;8.968;2024-03-08T05:50:24;17.00;;;12.80;;
30998;SDS011;20549;50.042;8.968;2024-03-08T05:52:51;17.80;;;13.50;;
30998;SDS011;20549;50.042;8.968;2024-03-08T05:55:17;19.00;;;14.17;;
30998;SDS011;20549;50.042;8.968;2024-03-08T05:57:44;16.80;;;12.77;;
30998;SDS011;20549;50.042;8.968;2024-03-08T06:00:11;16.67;;;13.27;;
30998;SDS011;20549;50.042;8.968;2024-03-08T06:02:38;17.77;;;13.20;;
30998;SDS011;20549;50.042;8.968;2024-03-08T06:05:04;16.90;;;13.00;;
30998;SDS011;20549;50.042;8.968;2024-03-08T06:07:30;18.43;;;14.07;;
30998;SDS011;20549;50.042;8.968;2024-03-08T06:09:57;19.27;;;14.07;;
30998;SDS011;20549;50.042;8.968;2024-03-08T06:12:24;17.13;;;13.30;;
30998;SDS011;20549;50.042;8.968;2024-03-08T06:14:50;17.97;;;14.47;;
30998;SDS011;20549;50.042;8.968;2024-03-08T06:17:17;16.00;;;12.73;;
30998;SDS011;20549;50.042;8.968;2024-03-08T06:19:43;17.33;;;13.63;;
30998;SDS011;20549;50.042;8.968;2024-03-08T06:22:10;17.23;;;13.03;;
30998;SDS011;20549;50.042;8.968;2024-03-08T06:24:36;20.20;;;14.23;;
30998;SDS011;20549;50.042;8.968;2024-03-08T06:27:03;16.97;;;13.23;;
30998;SDS011;20549;50.042;8.968;2024-03-08T06:29:30;15.07;;;13.47;;
30998;SDS011;20549;50.042;8.968;2024-03-08T06:31:56;17.77;;;13.67;;
30998;SDS011;20549;50.042;8.968;2024-03-08T06:34:23;16.90;;;13.23;;
30998;SDS011;20549;50.042;8.968;2024-03-08T06:36:49;18.00;;;13.57;;
30998;SDS011;20549;50.042;8.968;2024-03-08T06:39:16;15.63;;;13.30;;
30998;SDS011;20549;50.042;8.968;2024-03-08T06:41:43;13.57;;;12.07;;
30998;SDS011;20549;50.042;8.968;2024-03-08T06:44:09;20.03;;;12.70;;
30998;SDS011;20549;50.042;8.968;2024-03-08T06:46:36;16.67;;;12.77;;
30998;SDS011;20549;50.042;8.968;2024-03-08T06:49:02;15.13;;;13.37;;
30998;SDS011;20549;50.042;8.968;2024-03-08T06:51:29;17.00;;;13.53;;
30998;SDS011;20549;50.042;8.968;2024-03-08T06:53:56;14.53;;;12.83;;
30998;SDS011;20549;50.042;8.968;2024-03-08T06:56:22;15.37;;;13.40;;
30998;SDS011;20549;50.042;8.968;2024-03-08T06:58:49;15.20;;;12.97;;
30998;SDS011;20549;50.042;8.968;2024-03-08T07:01:15;13.30;;;11.90;;
30998;SDS011;20549;50.042;8.968;2024-03-08T07:03:42;14.07;;;12.57;;
30998;SDS011;20549;50.042;8.968;2024-03-08T07:06:09;15.43;;;13.43;;
30998;SDS011;20549;50.042;8.968;2024-03-08T07:08:35;15.63;;;12.80;;
30998;SDS011;20549;50.042;8.968;2024-03-08T07:11:02;16.77;;;13.40;;
30998;SDS011;20549;50.042;8.968;2024-03-08T07:13:28;16.07;;;12.82;;
30998;SDS011;20549;50.042;8.968;2024-03-08T07:15:55;14.20;;;12.73;;
30998;SDS011;20549;50.042;8.968;2024-03-08T07:18:21;13.88;;;12.37;;
30998;SDS011;20549;50.042;8.968;2024-03-08T07:20:48;14.90;;;11.95;;
30998;SDS011;20549;50.042;8.968;2024-03-08T07:23:15;13.93;;;12.40;;
30998;SDS011;20549;50.042;8.968;2024-03-08T07:25:41;14.30;;;12.80;;
30998;SDS011;20549;50.042;8.968;2024-03-08T07:28:08;13.43;;;11.97;;
30998;SDS011;20549;50.042;8.968;2024-03-08T07:30:34;13.53;;;11.70;;
30998;SDS011;20549;50.042;8.968;2024-03-08T07:33:10;13.72;;;12.13;;
30998;SDS011;20549;50.042;8.968;2024-03-08T07:35:39;13.20;;;11.88;;
30998;SDS011;20549;50.042;8.968;2024-03-08T07:38:09;13.58;;;12.18;;
30998;SDS011;20549;50.042;8.968;2024-03-08T07:40:36;12.98;;;11.63;;
30998;SDS011;20549;50.042;8.968;2024-03-08T07:43:02;13.22;;;11.85;;
30998;SDS011;20549;50.042;8.968;2024-03-08T07:45:28;13.75;;;11.70;;
30998;SDS011;20549;50.042;8.968;2024-03-08T07:47:55;12.55;;;10.75;;
30998;SDS011;20549;50.042;8.968;2024-03-08T07:50:22;12.78;;;11.43;;
30998;SDS011;20549;50.042;8.968;2024-03-08T07:52:48;13.00;;;11.65;;
30998;SDS011;20549;50.042;8.968;2024-03-08T07:55:15;12.28;;;11.08;;
30998;SDS011;20549;50.042;8.968;2024-03-08T07:57:41;12.23;;;11.08;;
30998;SDS011;20549;50.042;8.968;2024-03-08T08:00:08;12.18;;;10.65;;
30998;SDS011;20549;50.042;8.968;2024-03-08T08:02:34;13.28;;;12.00;;
30998;SDS011;20549;50.042;8.968;2024-03-08T08:05:01;11.95;;;10.75;;
30998;SDS011;20549;50.042;8.968;2024-03-08T08:07:28;13.15;;;11.78;;
30998;SDS011;20549;50.042;8.968;2024-03-08T08:09:54;11.88;;;10.68;;
30998;SDS011;20549;50.042;8.968;2024-03-08T08:12:21;12.82;;;11.12;;
30998;SDS011;20549;50.042;8.968;2024-03-08T08:14:47;12.70;;;11.40;;
30998;SDS011;20549;50.042;8.968;2024-03-08T08:17:14;12.30;;;11.10;;
30998;SDS011;20549;50.042;8.968;2024-03-08T08:19:41;11.35;;;10.32;;
30998;SDS011;20549;50.042;8.968;2024-03-08T08:22:07;12.03;;;10.90;;
30998;SDS011;20549;50.042;8.968;2024-03-08T08:24:34;11.55;;;10.35;;
30998;SDS011;20549;50.042;8.968;2024-03-08T08:27:00;11.65;;;10.45;;
30998;SDS011;20549;50.042;8.968;2024-03-08T08:29:27;10.80;;;9.80;;
30998;SDS011;20549;50.042;8.968;2024-03-08T08:31:53;12.07;;;10.23;;
30998;SDS011;20549;50.042;8.968;2024-03-08T08:34:20;9.93;;;9.00;;
30998;SDS011;20549;50.042;8.968;2024-03-08T08:36:47;10.55;;;9.45;;
30998;SDS011;20549;50.042;8.968;2024-03-08T08:39:13;9.80;;;8.90;;
30998;SDS011;20549;50.042;8.968;2024-03-08T08:41:40;10.82;;;9.78;;
30998;SDS011;20549;50.042;8.968;2024-03-08T08:44:07;10.48;;;9.38;;
30998;SDS011;20549;50.042;8.968;2024-03-08T08:46:33;10.03;;;8.98;;
30998;SDS011;20549;50.042;8.968;2024-03-08T08:49:00;9.40;;;8.50;;
30998;SDS011;20549;50.042;8.968;2024-03-08T08:51:26;10.35;;;8.95;;
30998;SDS011;20549;50.042;8.968;2024-03-08T08:53:53;10.15;;;9.15;;
30998;SDS011;20549;50.042;8.968;2024-03-08T08:56:19;9.55;;;8.60;;
30998;SDS011;20549;50.042;8.968;2024-03-08T08:58:46;10.35;;;9.28;;
30998;SDS011;20549;50.042;8.968;2024-03-08T09:01:13;10.25;;;9.28;;
30998;SDS011;20549;50.042;8.968;2024-03-08T09:03:39;10.38;;;9.45;;
30998;SDS011;20549;50.042;8.968;2024-03-08T09:06:08;10.53;;;9.43;;
30998;SDS011;20549;50.042;8.968;2024-03-08T09:08:38;9.70;;;8.70;;
30998;SDS011;20549;50.042;8.968;2024-03-08T09:11:04;11.40;;;10.20;;
30998;SDS011;20549;50.042;8.968;2024-03-08T09:13:31;10.18;;;9.20;;
30998;SDS011;20549;50.042;8.968;2024-03-08T09:15:57;9.53;;;8.45;;
30998;SDS011;20549;50.042;8.968;2024-03-08T09:18:24;9.33;;;8.43;;
30998;SDS011;20549;50.042;8.968;2024-03-08T09:20:51;10.18;;;8.98;;
30998;SDS011;20549;50.042;8.968;2024-03-08T09:23:20;10.32;;;9.33;;
30998;SDS011;20549;50.042;8.968;2024-03-08T09:25:47;10.98;;;9.00;;
30998;SDS011;20549;50.042;8.968;2024-03-08T09:28:14;11.05;;;9.85;;
30998;SDS011;20549;50.042;8.968;2024-03-08T09:30:40;9.73;;;8.73;;
30998;SDS011;20549;50.042;8.968;2024-03-08T09:33:07;9.53;;;8.63;;
30998;SDS011;20549;50.042;8.968;2024-03-08T09:35:33;9.78;;;8.80;;
30998;SDS011;20549;50.042;8.968;2024-03-08T09:38:00;11.33;;;10.18;;
30998;SDS011;20549;50.042;8.968;2024-03-08T09:40:26;9.30;;;8.40;;
30998;SDS011;20549;50.042;8.968;2024-03-08T09:42:53;10.05;;;9.05;;
30998;SDS011;20549;50.042;8.968;2024-03-08T09:45:20;9.73;;;8.73;;
30998;SDS011;20549;50.042;8.968;2024-03-08T09:47:46;9.83;;;8.55;;
30998;SDS011;20549;50.042;8.968;2024-03-08T09:50:13;9.10;;;8.25;;
30998;SDS011;20549;50.042;8.968;2024-03-08T09:52:40;8.78;;;7.97;;
30998;SDS011;20549;50.042;8.968;2024-03-08T09:55:06;9.95;;;9.00;;
30998;SDS011;20549;50.042;8.968;2024-03-08T09:57:34;8.90;;;8.00;;
30998;SDS011;20549;50.042;8.968;2024-03-08T10:00:00;10.68;;;9.13;;
30998;SDS011;20549;50.042;8.968;2024-03-08T10:02:27;9.58;;;8.63;;
30998;SDS011;20549;50.042;8.968;2024-03-08T10:04:54;9.08;;;8.05;;
30998;SDS011;20549;50.042;8.968;2024-03-08T10:07:20;8.60;;;7.80;;
30998;SDS011;20549;50.042;8.968;2024-03-08T10:09:47;9.23;;;8.30;;
30998;SDS011;20549;50.042;8.968;2024-03-08T10:12:13;9.68;;;8.35;;
30998;SDS011;20549;50.042;8.968;2024-03-08T10:14:40;9.00;;;8.10;;
30998;SDS011;20549;50.042;8.968;2024-03-08T10:17:07;9.48;;;8.53;;
30998;SDS011;20549;50.042;8.968;2024-03-08T10:19:33;8.93;;;8.03;;
30998;SDS011;20549;50.042;8.968;2024-03-08T10:22:00;9.10;;;8.03;;
30998;SDS011;20549;50.042;8.968;2024-03-08T10:24:26;9.23;;;8.30;;
30998;SDS011;20549;50.042;8.968;2024-03-08T10:26:53;10.13;;;8.23;;
30998;SDS011;20549;50.042;8.968;2024-03-08T10:29:19;9.73;;;8.70;;
30998;SDS011;20549;50.042;8.968;2024-03-08T10:31:46;9.73;;;8.43;;
30998;SDS011;20549;50.042;8.968;2024-03-08T10:34:13;11.20;;;8.45;;
30998;SDS011;20549;50.042;8.968;2024-03-08T10:36:40;10.90;;;9.15;;
30998;SDS011;20549;50.042;8.968;2024-03-08T10:39:09;10.43;;;8.30;;
30998;SDS011;20549;50.042;8.968;2024-03-08T10:41:38;9.63;;;8.33;;
30998;SDS011;20549;50.042;8.968;2024-03-08T10:49:36;9.13;;;8.10;;
30998;SDS011;20549;50.042;8.968;2024-03-08T10:51:57;9.23;;;8.25;;
30998;SDS011;20549;50.042;8.968;2024-03-08T10:54:24;11.33;;;9.10;;
30998;SDS011;20549;50.042;8.968;2024-03-08T10:56:50;11.53;;;9.43;;
30998;SDS011;20549;50.042;8.968;2024-03-08T10:59:17;10.45;;;8.85;;
30998;SDS011;20549;50.042;8.968;2024-03-08T11:01:44;11.65;;;9.08;;
30998;SDS011;20549;50.042;8.968;2024-03-08T11:04:10;10.68;;;8.83;;
30998;SDS011;20549;50.042;8.968;2024-03-08T11:14:46;11.73;;;9.25;;
30998;SDS011;20549;50.042;8.968;2024-03-08T11:17:15;10.32;;;9.18;;
30998;SDS011;20549;50.042;8.968;2024-03-08T11:19:45;9.80;;;8.33;;
30998;SDS011;20549;50.042;8.968;2024-03-08T11:22:12;10.33;;;9.30;;
30998;SDS011;20549;50.042;8.968;2024-03-08T11:24:38;10.88;;;8.18;;
30998;SDS011;20549;50.042;8.968;2024-03-08T11:27:04;9.23;;;8.27;;
30998;SDS011;20549;50.042;8.968;2024-03-08T11:32:14;11.22;;;9.78;;
30998;SDS011;20549;50.042;8.968;2024-03-08T11:34:42;10.80;;;9.23;;
30998;SDS011;20549;50.042;8.968;2024-03-08T11:37:15;10.35;;;8.20;;
30998;SDS011;20549;50.042;8.968;2024-03-08T11:39:38;9.73;;;8.67;;
30998;SDS011;20549;50.042;8.968;2024-03-08T11:42:04;9.90;;;8.78;;
30998;SDS011;20549;50.042;8.968;2024-03-08T11:44:31;9.35;;;8.45;;
30998;SDS011;20549;50.042;8.968;2024-03-08T11:46:57;11.08;;;8.90;;
30998;SDS011;20549;50.042;8.968;2024-03-08T11:49:24;12.00;;;9.10;;
30998;SDS011;20549;50.042;8.968;2024-03-08T11:51:53;10.38;;;8.85;;
30998;SDS011;20549;50.042;8.968;2024-03-08T11:54:20;9.65;;;8.60;;
30998;SDS011;20549;50.042;8.968;2024-03-08T11:56:47;9.53;;;8.53;;
30998;SDS011;20549;50.042;8.968;2024-03-08T11:59:13;10.43;;;9.33;;
30998;SDS011;20549;50.042;8.968;2024-03-08T12:01:40;10.63;;;9.53;;
30998;SDS011;20549;50.042;8.968;2024-03-08T12:04:06;11.78;;;9.65;;
30998;SDS011;20549;50.042;8.968;2024-03-08T12:06:36;9.28;;;8.35;;
30998;SDS011;20549;50.042;8.968;2024-03-08T12:09:03;11.22;;;9.53;;
30998;SDS011;20549;50.042;8.968;2024-03-08T12:11:29;11.03;;;9.20;;
30998;SDS011;20549;50.042;8.968;2024-03-08T12:13:56;10.57;;;9.33;;
30998;SDS011;20549;50.042;8.968;2024-03-08T12:16:23;12.50;;;10.28;;
30998;SDS011;20549;50.042;8.968;2024-03-08T12:18:50;10.97;;;9.70;;
30998;SDS011;20549;50.042;8.968;2024-03-08T12:21:16;11.67;;;10.43;;
30998;SDS011;20549;50.042;8.968;2024-03-08T12:23:48;9.85;;;8.85;;
30998;SDS011;20549;50.042;8.968;2024-03-08T12:26:18;11.28;;;10.08;;
30998;SDS011;20549;50.042;8.968;2024-03-08T12:28:44;9.88;;;8.88;;
30998;SDS011;20549;50.042;8.968;2024-03-08T12:31:13;10.58;;;9.48;;
30998;SDS011;20549;50.042;8.968;2024-03-08T12:33:49;12.30;;;9.70;;
30998;SDS011;20549;50.042;8.968;2024-03-08T12:36:19;11.53;;;9.97;;
30998;SDS011;20549;50.042;8.968;2024-03-08T12:38:45;11.50;;;9.05;;
30998;SDS011;20549;50.042;8.968;2024-03-08T12:41:17;10.72;;;9.00;;
30998;SDS011;20549;50.042;8.968;2024-03-08T12:43:41;10.10;;;8.57;;
30998;SDS011;20549;50.042;8.968;2024-03-08T12:46:07;12.58;;;9.15;;
30998;SDS011;20549;50.042;8.968;2024-03-08T12:48:37;11.43;;;9.18;;
30998;SDS011;20549;50.042;8.968;2024-03-08T12:51:03;9.95;;;8.93;;
30998;SDS011;20549;50.042;8.968;2024-03-08T12:53:30;12.70;;;9.30;;
30998;SDS011;20549;50.042;8.968;2024-03-08T12:55:56;9.85;;;8.65;;
30998;SDS011;20549;50.042;8.968;2024-03-08T12:58:23;9.88;;;8.05;;
30998;SDS011;20549;50.042;8.968;2024-03-08T13:00:50;9.80;;;8.80;;
30998;SDS011;20549;50.042;8.968;2024-03-08T13:03:16;12.63;;;10.40;;
30998;SDS011;20549;50.042;8.968;2024-03-08T13:05:43;8.98;;;8.08;;
30998;SDS011;20549;50.042;8.968;2024-03-08T13:08:09;10.07;;;9.07;;
30998;SDS011;20549;50.042;8.968;2024-03-08T13:10:36;12.55;;;9.60;;
30998;SDS011;20549;50.042;8.968;2024-03-08T13:13:02;10.45;;;8.10;;
30998;SDS011;20549;50.042;8.968;2024-03-08T13:15:29;10.30;;;8.50;;
30998;SDS011;20549;50.042;8.968;2024-03-08T13:17:56;10.48;;;9.30;;
30998;SDS011;20549;50.042;8.968;2024-03-08T13:20:25;11.57;;;9.08;;
30998;SDS011;20549;50.042;8.968;2024-03-08T13:22:52;11.00;;;9.35;;
30998;SDS011;20549;50.042;8.968;2024-03-08T13:25:18;11.40;;;10.08;;
30998;SDS011;20549;50.042;8.968;2024-03-08T13:27:45;10.13;;;8.90;;
30998;SDS011;20549;50.042;8.968;2024-03-08T13:30:12;10.17;;;8.53;;
30998;SDS011;20549;50.042;8.968;2024-03-08T13:32:39;12.63;;;9.70;;
30998;SDS011;20549;50.042;8.968;2024-03-08T13:35:05;11.83;;;9.30;;
30998;SDS011;20549;50.042;8.968;2024-03-08T13:37:31;10.93;;;9.83;;
30998;SDS011;20549;50.042;8.968;2024-03-08T13:39:58;9.60;;;8.60;;
30998;SDS011;20549;50.042;8.968;2024-03-08T13:42:25;12.30;;;9.10;;
30998;SDS011;20549;50.042;8.968;2024-03-08T13:44:51;12.15;;;10.50;;
30998;SDS011;20549;50.042;8.968;2024-03-08T13:47:18;10.80;;;9.70;;
30998;SDS011;20549;50.042;8.968;2024-03-08T13:49:44;11.57;;;8.73;;
30998;SDS011;20549;50.042;8.968;2024-03-08T13:52:11;13.22;;;9.50;;
30998;SDS011;20549;50.042;8.968;2024-03-08T13:54:38;9.80;;;8.80;;
30998;SDS011;20549;50.042;8.968;2024-03-08T13:57:04;11.08;;;8.78;;
30998;SDS011;20549;50.042;8.968;2024-03-08T13:59:31;11.03;;;9.33;;
30998;SDS011;20549;50.042;8.968;2024-03-08T14:01:57;9.93;;;8.80;;
30998;SDS011;20549;50.042;8.968;2024-03-08T14:04:24;9.08;;;7.92;;
30998;SDS011;20549;50.042;8.968;2024-03-08T14:06:50;12.35;;;8.48;;
30998;SDS011;20549;50.042;8.968;2024-03-08T14:09:17;9.60;;;8.58;;
30998;SDS011;20549;50.042;8.968;2024-03-08T14:11:44;10.03;;;8.75;;
30998;SDS011;20549;50.042;8.968;2024-03-08T14:14:10;11.45;;;9.63;;
30998;SDS011;20549;50.042;8.968;2024-03-08T14:16:40;10.05;;;9.05;;
30998;SDS011;20549;50.042;8.968;2024-03-08T14:19:07;11.03;;;9.65;;
30998;SDS011;20549;50.042;8.968;2024-03-08T14:21:35;10.48;;;8.93;;
30998;SDS011;20549;50.042;8.968;2024-03-08T14:24:03;9.80;;;8.80;;
30998;SDS011;20549;50.042;8.968;2024-03-08T14:26:29;11.25;;;9.43;;
30998;SDS011;20549;50.042;8.968;2024-03-08T14:28:56;9.28;;;8.30;;
30998;SDS011;20549;50.042;8.968;2024-03-08T14:31:22;11.03;;;9.18;;
30998;SDS011;20549;50.042;8.968;2024-03-08T14:33:52;10.58;;;9.38;;
30998;SDS011;20549;50.042;8.968;2024-03-08T14:36:19;9.05;;;8.13;;
30998;SDS011;20549;50.042;8.968;2024-03-08T14:38:48;9.78;;;8.40;;
30998;SDS011;20549;50.042;8.968;2024-03-08T14:41:14;9.23;;;8.30;;
30998;SDS011;20549;50.042;8.968;2024-03-08T14:43:44;9.73;;;8.50;;